createdAt,value
2023-03-12T00:00:09.371Z,29.90
2023-03-12T00:02:36.506Z,29.90
2023-03-12T00:05:04.400Z,29.90
2023-03-12T00:07:32.597Z,29.90
2023-03-12T00:09:59.682Z,29.90
2023-03-12T00:12:26.675Z,30.00
2023-03-12T00:14:53.651Z,29.90
2023-03-12T00:17:20.564Z,29.80
2023-03-12T00:19:55.127Z,29.90
2023-03-12T00:22:23.085Z,30.00
2023-03-12T00:24:56.166Z,29.90
2023-03-12T00:27:25.023Z,29.90
2023-03-12T00:29:52.658Z,29.90
2023-03-12T00:32:20.279Z,29.90
2023-03-12T00:34:56.622Z,29.90
2023-03-12T00:37:23.569Z,30.00
2023-03-12T00:39:50.596Z,29.90
2023-03-12T00:42:18.574Z,29.90
2023-03-12T00:44:45.849Z,30.00
2023-03-12T00:47:13.508Z,29.90
2023-03-12T00:49:40.897Z,30.00
2023-03-12T00:52:07.870Z,29.90
2023-03-12T00:54:34.892Z,30.00
2023-03-12T00:57:01.782Z,29.90
2023-03-12T00:59:28.786Z,30.00
2023-03-12T01:01:55.771Z,29.90
2023-03-12T01:04:23.783Z,30.00
2023-03-12T01:06:50.865Z,30.50
2023-03-12T01:09:17.777Z,30.00
2023-03-12T01:11:44.779Z,30.00
2023-03-12T01:14:11.789Z,30.00
2023-03-12T01:16:38.788Z,30.00
2023-03-12T01:19:05.973Z,30.00
2023-03-12T01:21:33.037Z,30.00
2023-03-12T01:24:00.085Z,30.00
2023-03-12T01:26:27.346Z,30.00
2023-03-12T01:28:54.277Z,30.10
2023-03-12T01:31:21.454Z,30.00
2023-03-12T01:33:52.249Z,30.10
2023-03-12T01:36:27.760Z,30.10
2023-03-12T01:38:58.764Z,30.10
2023-03-12T01:41:28.850Z,30.10
2023-03-12T01:43:55.851Z,30.10
2023-03-12T01:46:34.890Z,30.10
2023-03-12T01:49:25.513Z,30.20
2023-03-12T01:52:10.940Z,30.30
2023-03-12T01:55:01.630Z,30.40
2023-03-12T01:57:41.900Z,30.30
2023-03-12T02:00:28.989Z,30.30
2023-03-12T02:03:04.815Z,30.40
2023-03-12T02:05:34.969Z,30.30
2023-03-12T02:08:02.273Z,30.20
2023-03-12T02:10:29.352Z,30.30
2023-03-12T02:12:56.650Z,30.40
2023-03-12T02:15:23.945Z,30.30
2023-03-12T02:17:50.896Z,30.30
2023-03-12T02:20:33.385Z,30.30
2023-03-12T02:23:31.305Z,30.50
2023-03-12T02:26:00.504Z,30.60
2023-03-12T02:28:29.908Z,30.30
2023-03-12T02:31:04.285Z,30.40
2023-03-12T02:33:31.360Z,30.60
2023-03-12T02:35:58.404Z,30.40
2023-03-12T02:38:43.945Z,30.40
2023-03-12T02:41:21.826Z,30.80
2023-03-12T02:44:13.378Z,30.60
2023-03-12T02:46:48.041Z,30.70
2023-03-12T02:49:17.749Z,30.60
2023-03-12T02:51:46.918Z,31.20
2023-03-12T02:54:15.702Z,30.50
2023-03-12T02:56:43.505Z,30.50
2023-03-12T02:59:13.264Z,30.60
2023-03-12T03:01:40.883Z,30.70
2023-03-12T03:04:10.545Z,30.60
2023-03-12T03:06:41.288Z,30.60
2023-03-12T03:09:13.169Z,30.60
2023-03-12T03:11:45.073Z,30.60
2023-03-12T03:14:14.130Z,30.60
2023-03-12T03:16:45.736Z,30.60
2023-03-12T03:19:18.869Z,30.70
2023-03-12T03:21:45.921Z,30.70
2023-03-12T03:24:12.859Z,30.70
2023-03-12T03:26:40.438Z,30.70
2023-03-12T03:29:07.565Z,30.70
2023-03-12T03:31:34.783Z,30.70
2023-03-12T03:34:01.764Z,30.80
2023-03-12T03:36:28.830Z,31.30
2023-03-12T03:38:55.795Z,30.80
2023-03-12T03:41:23.237Z,30.80
2023-03-12T03:43:50.288Z,30.80
2023-03-12T03:46:17.381Z,30.80
2023-03-12T03:48:44.383Z,30.80
2023-03-12T03:51:11.861Z,30.80
2023-03-12T03:53:39.059Z,30.80
2023-03-12T03:56:12.416Z,30.80
2023-03-12T03:58:39.601Z,30.90
2023-03-12T04:01:07.559Z,30.80
2023-03-12T04:03:34.967Z,30.90
2023-03-12T04:06:05.935Z,30.90
2023-03-12T04:08:35.622Z,30.90
2023-03-12T04:11:15.471Z,30.90
2023-03-12T04:13:43.743Z,31.10
2023-03-12T04:16:12.458Z,30.90
2023-03-12T04:18:40.333Z,30.90
2023-03-12T04:21:10.451Z,30.90
2023-03-12T04:23:38.112Z,30.90
2023-03-12T04:26:06.600Z,30.90
2023-03-12T04:28:34.824Z,30.90
2023-03-12T04:31:06.920Z,31.00
2023-03-12T04:33:38.493Z,31.00
2023-03-12T04:36:06.905Z,31.00
2023-03-12T04:38:34.507Z,30.90
2023-03-12T04:41:13.102Z,30.90
2023-03-12T04:43:40.155Z,31.10
2023-03-12T04:46:08.459Z,31.00
2023-03-12T04:48:36.968Z,31.00
2023-03-12T04:51:05.274Z,31.10
2023-03-12T04:53:32.660Z,31.10
2023-03-12T04:55:59.841Z,31.10
2023-03-12T04:58:26.894Z,31.10
2023-03-12T05:00:53.850Z,31.10
2023-03-12T05:03:20.900Z,31.10
2023-03-12T05:05:47.799Z,31.10
2023-03-12T05:08:14.818Z,31.70
2023-03-12T05:10:45.192Z,31.10
2023-03-12T05:13:16.482Z,31.10
2023-03-12T05:15:44.373Z,31.20
2023-03-12T05:18:11.471Z,31.10
2023-03-12T05:20:38.874Z,31.10
2023-03-12T05:23:06.256Z,31.20
2023-03-12T05:25:33.256Z,31.20
2023-03-12T05:28:00.410Z,31.20
2023-03-12T05:30:27.290Z,31.60
2023-03-12T05:32:54.246Z,31.20
2023-03-12T05:35:21.178Z,31.10
2023-03-12T05:37:48.160Z,31.10
2023-03-12T05:40:15.208Z,31.20
2023-03-12T05:42:42.125Z,31.20
2023-03-12T05:45:09.973Z,31.20
2023-03-12T05:47:36.959Z,31.20
2023-03-12T05:50:04.486Z,31.20
2023-03-12T05:52:31.449Z,31.20
2023-03-12T05:54:58.456Z,31.30
2023-03-12T05:57:25.438Z,31.20
2023-03-12T05:59:52.461Z,31.30
2023-03-12T06:02:20.016Z,31.30
2023-03-12T06:04:46.975Z,31.30
2023-03-12T06:07:13.906Z,31.30
2023-03-12T06:09:42.112Z,31.20
2023-03-12T06:12:09.600Z,31.30
2023-03-12T06:14:36.598Z,31.30
2023-03-12T06:17:03.626Z,31.20
2023-03-12T06:19:30.577Z,31.30
2023-03-12T06:21:57.869Z,31.30
2023-03-12T06:24:24.836Z,31.30
2023-03-12T06:26:51.709Z,31.30
2023-03-12T06:29:18.765Z,31.30
2023-03-12T06:31:45.913Z,31.30
2023-03-12T06:34:16.811Z,31.40
2023-03-12T06:36:44.257Z,31.40
2023-03-12T06:39:11.172Z,31.40
2023-03-12T06:41:38.302Z,31.40
2023-03-12T06:44:06.361Z,31.30
2023-03-12T06:46:33.726Z,31.30
2023-03-12T06:49:00.734Z,31.50
2023-03-12T06:51:27.672Z,31.40
2023-03-12T06:53:54.702Z,31.40
2023-03-12T06:56:21.651Z,31.40
2023-03-12T06:58:48.903Z,31.40
2023-03-12T07:01:16.150Z,31.40
2023-03-12T07:03:43.308Z,31.40
2023-03-12T07:06:20.399Z,31.40
2023-03-12T07:08:47.725Z,31.50
2023-03-12T07:11:15.598Z,31.40
2023-03-12T07:13:42.874Z,31.50
2023-03-12T07:16:11.039Z,31.50
2023-03-12T07:18:38.545Z,31.50
2023-03-12T07:21:06.245Z,31.40
2023-03-12T07:23:33.146Z,31.50
2023-03-12T07:26:00.043Z,31.50
2023-03-12T07:28:27.032Z,31.50
2023-03-12T07:31:00.487Z,31.50
2023-03-12T07:33:27.554Z,31.50
2023-03-12T07:35:54.674Z,31.50
2023-03-12T07:38:21.743Z,31.50
2023-03-12T07:40:54.189Z,32.10
2023-03-12T07:43:22.236Z,31.50
2023-03-12T07:45:50.085Z,31.50
2023-03-12T07:48:19.885Z,31.50
2023-03-12T07:50:47.716Z,31.50
2023-03-12T07:53:15.141Z,31.50
2023-03-12T07:55:46.160Z,31.40
2023-03-12T07:58:14.419Z,31.60
2023-03-12T08:00:41.748Z,31.50
2023-03-12T08:03:09.077Z,31.60
2023-03-12T08:05:36.483Z,32.20
2023-03-12T08:08:03.934Z,31.60
2023-03-12T08:10:31.308Z,31.60
2023-03-12T08:12:58.410Z,31.60
2023-03-12T08:15:25.404Z,31.60
2023-03-12T08:17:52.406Z,31.60
2023-03-12T08:20:19.543Z,31.60
2023-03-12T08:22:46.517Z,31.60
2023-03-12T08:25:13.596Z,31.60
2023-03-12T08:27:40.615Z,31.60
2023-03-12T08:30:08.726Z,31.60
2023-03-12T08:32:35.989Z,31.60
2023-03-12T08:35:05.263Z,31.60
2023-03-12T08:37:33.066Z,31.30
2023-03-12T08:40:00.440Z,32.00
2023-03-12T08:42:27.506Z,31.70
2023-03-12T08:44:54.517Z,31.80
2023-03-12T08:47:21.606Z,31.90
2023-03-12T08:49:51.147Z,31.90
2023-03-12T08:52:18.077Z,32.00
2023-03-12T08:54:45.029Z,32.00
2023-03-12T08:57:12.185Z,32.00
2023-03-12T08:59:39.481Z,32.10
2023-03-12T09:02:07.071Z,32.10
2023-03-12T09:04:34.113Z,32.10
2023-03-12T09:07:01.779Z,32.10
2023-03-12T09:09:29.096Z,32.20
2023-03-12T09:11:56.152Z,32.50
2023-03-12T09:17:10.655Z,32.20
2023-03-12T09:19:39.604Z,32.20
2023-03-12T09:22:06.552Z,32.20
2023-03-12T09:24:34.103Z,32.30
2023-03-12T09:27:02.548Z,32.40
2023-03-12T09:29:29.610Z,32.30
2023-03-12T09:31:57.012Z,32.30
2023-03-12T09:34:24.090Z,32.50
2023-03-12T09:36:51.206Z,32.50
2023-03-12T09:39:18.280Z,32.60
2023-03-12T09:41:48.338Z,32.40
2023-03-12T09:44:34.608Z,32.50
2023-03-12T09:47:34.950Z,32.70
2023-03-12T09:50:22.797Z,32.50
2023-03-12T09:52:59.434Z,32.50
2023-03-12T09:55:32.768Z,32.40
2023-03-12T09:58:00.218Z,32.30
2023-03-12T10:00:35.789Z,32.50
2023-03-12T10:03:53.122Z,32.30
2023-03-12T10:06:47.315Z,32.30
2023-03-12T10:10:03.925Z,32.30
2023-03-12T10:13:34.287Z,32.30
2023-03-12T10:16:37.256Z,32.40
2023-03-12T10:19:36.144Z,32.30
2023-03-12T10:22:48.368Z,32.30
2023-03-12T10:25:35.461Z,32.30
2023-03-12T10:28:19.960Z,32.30
2023-03-12T10:31:01.400Z,32.30
2023-03-12T10:33:48.077Z,32.30
2023-03-12T10:36:38.267Z,32.30
2023-03-12T10:39:26.395Z,32.20
2023-03-12T10:41:53.745Z,32.20
2023-03-12T10:44:25.048Z,32.20
2023-03-12T10:47:01.410Z,32.20
2023-03-12T10:49:34.744Z,32.20
2023-03-12T10:52:07.418Z,32.20
2023-03-12T10:54:41.427Z,32.20
2023-03-12T10:57:12.440Z,32.20
2023-03-12T10:59:43.641Z,32.40
2023-03-12T11:02:43.344Z,32.20
2023-03-12T11:05:36.466Z,32.20
2023-03-12T11:08:21.115Z,32.20
2023-03-12T11:10:48.922Z,32.20
2023-03-12T11:13:36.331Z,32.20
2023-03-12T11:16:31.894Z,32.20
2023-03-12T11:19:04.061Z,32.20
2023-03-12T11:21:38.362Z,32.20
2023-03-12T11:24:09.848Z,32.20
2023-03-12T11:26:53.699Z,32.20
2023-03-12T11:29:26.556Z,32.20
2023-03-12T11:32:18.222Z,32.30
2023-03-12T11:34:49.968Z,32.60
2023-03-12T11:38:00.144Z,32.50
2023-03-12T11:40:45.328Z,32.80
2023-03-12T11:43:40.228Z,32.90
2023-03-12T11:46:25.706Z,33.10
2023-03-12T11:49:39.772Z,33.20
2023-03-12T11:52:23.899Z,33.30
2023-03-12T11:55:21.508Z,33.30
2023-03-12T11:58:35.347Z,33.40
2023-03-12T12:01:17.850Z,33.30
2023-03-12T12:04:24.434Z,33.40
2023-03-12T12:06:54.076Z,33.20
2023-03-12T12:10:09.459Z,33.30
2023-03-12T12:13:06.431Z,33.10
2023-03-12T12:15:54.584Z,33.10
2023-03-12T12:18:51.850Z,33.20
2023-03-12T12:22:02.198Z,33.00
2023-03-12T12:24:57.637Z,33.00
2023-03-12T12:27:33.141Z,32.90
2023-03-12T12:30:21.111Z,32.90
2023-03-12T12:33:04.393Z,33.00
2023-03-12T12:35:40.820Z,32.70
2023-03-12T12:38:42.519Z,32.70
2023-03-12T12:41:20.757Z,32.70
2023-03-12T12:43:50.589Z,32.90
2023-03-12T12:46:32.677Z,32.70
2023-03-12T12:49:28.647Z,32.80
2023-03-12T12:52:04.829Z,32.60
2023-03-12T12:55:22.681Z,32.10
2023-03-12T12:58:00.680Z,32.40
2023-03-12T13:00:44.428Z,32.50
2023-03-12T13:03:21.679Z,32.50
2023-03-12T13:06:02.880Z,32.40
2023-03-12T13:08:34.736Z,32.30
2023-03-12T13:11:23.646Z,32.40
2023-03-12T13:14:05.721Z,32.30
2023-03-12T13:16:37.089Z,32.20
2023-03-12T13:19:27.242Z,32.40
2023-03-12T13:22:17.599Z,32.30
2023-03-12T13:25:24.603Z,32.40
2023-03-12T13:28:01.348Z,32.20
2023-03-12T13:30:48.675Z,32.20
2023-03-12T13:33:21.750Z,32.00
2023-03-12T13:36:23.886Z,32.20
2023-03-12T13:39:27.776Z,31.80
2023-03-12T13:42:00.925Z,31.70
2023-03-12T13:44:29.018Z,31.80
2023-03-12T13:47:16.792Z,32.00
2023-03-12T13:50:04.464Z,31.50
2023-03-12T13:52:41.232Z,31.70
2023-03-12T13:55:14.002Z,31.60
2023-03-12T13:57:52.951Z,31.40
2023-03-12T14:00:28.599Z,31.50
2023-03-12T14:03:02.768Z,31.40
2023-03-12T14:05:35.880Z,31.30
2023-03-12T14:08:28.885Z,31.40
2023-03-12T14:11:29.644Z,31.10
2023-03-12T14:14:45.716Z,31.00
2023-03-12T14:17:29.278Z,30.60
2023-03-12T14:20:14.853Z,30.70
2023-03-12T14:22:48.588Z,30.70
2023-03-12T14:25:35.921Z,30.80
2023-03-12T14:28:11.489Z,30.60
2023-03-12T14:31:01.132Z,30.70
2023-03-12T14:33:36.680Z,30.80
2023-03-12T14:36:18.455Z,30.70
2023-03-12T14:38:49.029Z,30.50
2023-03-12T14:41:38.931Z,30.70
2023-03-12T14:44:22.846Z,30.50
2023-03-12T14:47:11.186Z,30.80
2023-03-12T14:49:47.141Z,30.60
2023-03-12T14:52:23.617Z,30.70
2023-03-12T14:55:02.154Z,30.80
2023-03-12T14:57:29.425Z,30.80
2023-03-12T14:59:58.918Z,30.90
2023-03-12T15:02:28.805Z,30.90
2023-03-12T15:05:00.500Z,30.80
2023-03-12T15:07:48.202Z,30.90
2023-03-12T15:10:30.726Z,30.70
2023-03-12T15:13:01.635Z,30.70
2023-03-12T15:15:43.211Z,30.90
2023-03-12T15:18:31.352Z,30.80
2023-03-12T15:21:02.678Z,30.80
2023-03-12T15:23:36.642Z,30.90
2023-03-12T15:26:20.732Z,30.80
2023-03-12T15:29:27.331Z,30.90
2023-03-12T15:32:00.100Z,30.80
2023-03-12T15:34:33.122Z,30.80
2023-03-12T15:37:19.294Z,30.80
2023-03-12T15:39:51.960Z,30.90
2023-03-12T15:42:25.025Z,30.80
2023-03-12T15:44:54.675Z,30.70
2023-03-12T15:47:39.750Z,30.80
2023-03-12T15:50:20.544Z,30.60
2023-03-12T15:53:28.761Z,30.70
2023-03-12T15:56:22.731Z,30.70
2023-03-12T15:59:27.150Z,30.70
2023-03-12T16:01:56.545Z,30.70
2023-03-12T16:04:24.605Z,30.70
2023-03-12T16:06:53.418Z,30.80
2023-03-12T16:09:26.385Z,30.70
2023-03-12T16:11:57.355Z,30.60
2023-03-12T16:14:34.568Z,30.60
2023-03-12T16:17:01.623Z,30.60
2023-03-12T16:19:33.166Z,30.70
2023-03-12T16:22:00.208Z,30.60
2023-03-12T16:24:27.274Z,30.70
2023-03-12T16:26:58.038Z,30.60
2023-03-12T16:29:34.524Z,30.70
2023-03-12T16:32:02.391Z,30.60
2023-03-12T16:34:29.496Z,30.60
2023-03-12T16:36:56.762Z,30.60
2023-03-12T16:39:23.915Z,30.60
2023-03-12T16:41:50.869Z,30.60
2023-03-12T16:44:21.757Z,30.60
2023-03-12T16:46:49.001Z,30.60
2023-03-12T16:49:19.636Z,30.50
2023-03-12T16:51:46.894Z,30.60
2023-03-12T16:54:14.251Z,30.60
2023-03-12T16:56:48.423Z,30.60
2023-03-12T16:59:28.838Z,30.50
2023-03-12T17:01:56.591Z,30.50
2023-03-12T17:04:23.624Z,30.60
2023-03-12T17:06:50.614Z,30.60
2023-03-12T17:09:19.044Z,30.50
2023-03-12T17:11:48.742Z,30.60
2023-03-12T17:14:21.995Z,30.50
2023-03-12T17:16:49.770Z,30.50
2023-03-12T17:19:16.898Z,30.50
2023-03-12T17:21:44.366Z,30.50
2023-03-12T17:24:14.112Z,30.50
2023-03-12T17:26:42.764Z,30.50
2023-03-12T17:29:10.097Z,30.60
2023-03-12T17:31:37.728Z,30.50
2023-03-12T17:34:05.296Z,30.50
2023-03-12T17:36:35.301Z,30.50
2023-03-12T17:39:02.136Z,30.50
2023-03-12T17:41:30.889Z,30.50
2023-03-12T17:44:01.602Z,30.50
2023-03-12T17:46:30.045Z,30.40
2023-03-12T17:48:57.094Z,30.50
2023-03-12T17:51:24.411Z,30.50
2023-03-12T17:53:51.267Z,30.50
2023-03-12T17:56:18.328Z,30.50
2023-03-12T17:58:46.174Z,30.50
2023-03-12T18:01:14.834Z,30.50
2023-03-12T18:03:43.796Z,30.50
2023-03-12T18:06:11.594Z,30.50
2023-03-12T18:08:39.364Z,30.50
2023-03-12T18:11:06.295Z,30.50
2023-03-12T18:13:33.286Z,30.50
2023-03-12T18:16:00.403Z,30.50
2023-03-12T18:18:28.887Z,30.50
2023-03-12T18:20:56.067Z,30.40
2023-03-12T18:23:25.122Z,30.40
2023-03-12T18:25:52.180Z,30.40
2023-03-12T18:28:19.324Z,30.50
2023-03-12T18:30:47.953Z,30.50
2023-03-12T18:33:15.317Z,30.40
2023-03-12T18:35:44.428Z,30.40
2023-03-12T18:38:11.931Z,30.40
2023-03-12T18:40:39.342Z,30.40
2023-03-12T18:43:06.353Z,30.40
2023-03-12T18:45:33.404Z,30.40
2023-03-12T18:48:00.355Z,30.40
2023-03-12T18:50:27.395Z,30.40
2023-03-12T18:52:54.325Z,30.40
2023-03-12T18:55:21.353Z,30.40
2023-03-12T18:57:48.314Z,30.40
2023-03-12T19:00:17.968Z,30.30
2023-03-12T19:02:47.971Z,30.30
2023-03-12T19:05:16.468Z,30.30
2023-03-12T19:07:43.876Z,30.30
2023-03-12T19:10:12.301Z,30.40
2023-03-12T19:12:51.667Z,30.30
2023-03-12T19:15:20.438Z,30.30
2023-03-12T19:17:47.385Z,30.30
2023-03-12T19:20:14.341Z,30.40
2023-03-12T19:22:41.734Z,30.30
2023-03-12T19:25:09.262Z,30.30
2023-03-12T19:27:36.150Z,30.30
2023-03-12T19:30:04.520Z,30.50
2023-03-12T19:32:42.506Z,30.40
2023-03-12T19:35:12.184Z,30.40
2023-03-12T19:37:39.375Z,30.40
2023-03-12T19:40:07.274Z,30.40
2023-03-12T19:42:34.303Z,30.50
2023-03-12T19:45:01.233Z,30.40
2023-03-12T19:47:28.488Z,30.40
2023-03-12T19:49:55.410Z,30.50
2023-03-12T19:52:22.437Z,30.50
2023-03-12T19:55:03.332Z,30.50
2023-03-12T19:57:32.316Z,30.50
2023-03-12T19:59:59.298Z,30.50
2023-03-12T20:02:26.632Z,30.40
2023-03-12T20:04:55.397Z,30.40
2023-03-12T20:07:22.722Z,30.50
2023-03-12T20:09:49.904Z,30.50
2023-03-12T20:12:16.790Z,30.50
2023-03-12T20:14:43.780Z,30.50
2023-03-12T20:17:12.181Z,30.40
2023-03-12T20:19:39.822Z,30.50
2023-03-12T20:22:07.458Z,30.50
2023-03-12T20:24:34.985Z,30.40
2023-03-12T20:27:02.179Z,30.40
2023-03-12T20:29:29.079Z,30.40
2023-03-12T20:31:56.119Z,30.40
2023-03-12T20:34:23.256Z,30.40
2023-03-12T20:36:50.271Z,30.40
2023-03-12T20:39:17.227Z,30.40
2023-03-12T20:41:44.294Z,30.40
2023-03-12T20:44:11.355Z,30.30
2023-03-12T20:46:38.388Z,30.30
2023-03-12T20:49:05.267Z,30.30
2023-03-12T20:51:32.270Z,30.30
2023-03-12T20:53:59.224Z,30.30
2023-03-12T20:56:26.309Z,30.30
2023-03-12T20:58:53.901Z,30.30
2023-03-12T21:01:20.899Z,30.20
2023-03-12T21:03:47.868Z,30.20
2023-03-12T21:06:14.834Z,30.20
2023-03-12T21:08:41.864Z,30.30
2023-03-12T21:11:10.024Z,30.30
2023-03-12T21:13:36.971Z,30.30
2023-03-12T21:16:08.194Z,30.30
2023-03-12T21:18:35.708Z,30.20
2023-03-12T21:21:05.303Z,30.20
2023-03-12T21:23:33.567Z,30.20
2023-03-12T21:26:07.199Z,30.20
2023-03-12T21:28:35.673Z,30.30
2023-03-12T21:31:12.957Z,30.20
2023-03-12T21:33:39.968Z,30.20
2023-03-12T21:36:10.569Z,30.20
2023-03-12T21:38:39.251Z,30.20
2023-03-12T21:41:15.419Z,30.20
2023-03-12T21:43:43.922Z,30.20
2023-03-12T21:46:15.359Z,30.20
2023-03-12T21:48:45.965Z,30.20
2023-03-12T21:51:16.422Z,30.20
2023-03-12T21:53:43.876Z,29.20
2023-03-12T21:56:11.975Z,30.20
2023-03-12T21:58:38.989Z,30.20
2023-03-12T22:01:09.441Z,30.30
2023-03-12T22:03:38.334Z,30.20
2023-03-12T22:06:06.328Z,30.20
2023-03-12T22:08:34.926Z,30.20
2023-03-12T22:11:02.299Z,30.20
2023-03-12T22:13:29.419Z,30.20
2023-03-12T22:16:05.931Z,30.20
2023-03-12T22:18:36.029Z,30.20
2023-03-12T22:21:07.749Z,30.10
2023-03-12T22:23:36.290Z,30.10
2023-03-12T22:26:06.052Z,30.00
2023-03-12T22:28:34.255Z,30.20
2023-03-12T22:31:05.688Z,30.00
2023-03-12T22:33:35.847Z,30.10
2023-03-12T22:36:09.297Z,30.00
2023-03-12T22:38:37.813Z,30.10
2023-03-12T22:41:26.340Z,30.00
2023-03-12T22:43:57.009Z,30.00
2023-03-12T22:46:25.920Z,30.00
2023-03-12T22:48:56.384Z,30.00
2023-03-12T22:51:24.488Z,30.00
2023-03-12T22:53:52.034Z,30.00
2023-03-12T22:56:19.102Z,30.00
2023-03-12T22:58:46.806Z,29.90
2023-03-12T23:01:17.391Z,30.00
2023-03-12T23:03:46.240Z,30.00
2023-03-12T23:06:39.881Z,30.00
2023-03-12T23:09:06.797Z,30.00
2023-03-12T23:11:33.752Z,30.00
2023-03-12T23:14:00.752Z,30.00
2023-03-12T23:16:27.732Z,30.00
2023-03-12T23:18:56.235Z,30.00
2023-03-12T23:21:24.976Z,30.00
2023-03-12T23:23:52.594Z,30.00
2023-03-12T23:26:22.451Z,29.90
2023-03-12T23:28:53.150Z,29.80
2023-03-12T23:31:20.963Z,30.00
2023-03-12T23:33:48.136Z,30.00
2023-03-12T23:36:20.037Z,30.00
2023-03-12T23:38:48.903Z,30.00
2023-03-12T23:41:31.285Z,30.00
2023-03-12T23:43:59.408Z,30.00
2023-03-12T23:46:29.983Z,30.00
2023-03-12T23:48:57.509Z,30.00
2023-03-12T23:51:31.694Z,30.00
2023-03-12T23:54:02.447Z,30.00
2023-03-12T23:56:37.660Z,30.00
2023-03-12T23:59:06.466Z,30.00
